Dime Box, Texas
Current Conditions -  °F | °C
As of 2:55 PM on Thursday 20 Nov 2014 (Local Time) from KRWV Reporting Station
Broken Clouds Broken Clouds  
Wind Chill: 70°   Ceiling: 2900
Heat Index: 70°   Visibility: 10mi
Dew Point: 61°   Wind: 14mph
Humidity: 73%   Direction: 150°SSE
Pressure: 30.07"   Gusts: NA
Location:  30.36°N, 96.82°W
Report Text: KRWV 202055Z AUTO 15012KT 10SM BKN029 21/16 A3007 RMK AO2
Loading
Personal Weather Stations






























Interactive Weather Map New forecast layout! Learn more

10-Day Weather Forecast

Advertisements
Track Severe Weather on mobile